sensor_id;sensor_type;location;lat;lon;timestamp;P1;durP1;ratioP1;P2;durP2;ratioP2
11767;SDS011;5941;57.652;12.514;2023-05-29T00:00:17;563.40;;;537.03;;
11767;SDS011;5941;57.652;12.514;2023-05-29T00:02:44;524.93;;;501.90;;
11767;SDS011;5941;57.652;12.514;2023-05-29T00:05:10;492.27;;;470.40;;
11767;SDS011;5941;57.652;12.514;2023-05-29T00:07:37;513.07;;;490.30;;
11767;SDS011;5941;57.652;12.514;2023-05-29T00:10:04;531.93;;;507.83;;
11767;SDS011;5941;57.652;12.514;2023-05-29T00:12:30;476.57;;;456.10;;
11767;SDS011;5941;57.652;12.514;2023-05-29T00:14:56;440.03;;;421.70;;
11767;SDS011;5941;57.652;12.514;2023-05-29T00:17:22;429.87;;;411.83;;
11767;SDS011;5941;57.652;12.514;2023-05-29T00:19:48;432.57;;;414.73;;
11767;SDS011;5941;57.652;12.514;2023-05-29T00:22:15;512.83;;;490.60;;
11767;SDS011;5941;57.652;12.514;2023-05-29T00:24:41;518.70;;;496.13;;
11767;SDS011;5941;57.652;12.514;2023-05-29T00:27:07;514.43;;;492.17;;
11767;SDS011;5941;57.652;12.514;2023-05-29T00:29:33;536.63;;;513.23;;
11767;SDS011;5941;57.652;12.514;2023-05-29T00:32:00;525.07;;;502.57;;
11767;SDS011;5941;57.652;12.514;2023-05-29T00:34:26;503.77;;;481.53;;
11767;SDS011;5941;57.652;12.514;2023-05-29T00:36:52;454.93;;;435.57;;
11767;SDS011;5941;57.652;12.514;2023-05-29T00:39:20;448.03;;;428.97;;
11767;SDS011;5941;57.652;12.514;2023-05-29T00:41:46;437.17;;;418.90;;
11767;SDS011;5941;57.652;12.514;2023-05-29T00:44:15;438.37;;;419.80;;
11767;SDS011;5941;57.652;12.514;2023-05-29T00:46:41;529.70;;;506.87;;
11767;SDS011;5941;57.652;12.514;2023-05-29T00:49:07;526.30;;;503.53;;
11767;SDS011;5941;57.652;12.514;2023-05-29T00:51:33;542.20;;;518.50;;
11767;SDS011;5941;57.652;12.514;2023-05-29T00:54:01;542.70;;;518.13;;
11767;SDS011;5941;57.652;12.514;2023-05-29T00:56:27;570.40;;;545.03;;
11767;SDS011;5941;57.652;12.514;2023-05-29T00:58:53;555.63;;;530.83;;
11767;SDS011;5941;57.652;12.514;2023-05-29T01:01:19;553.80;;;529.70;;
11767;SDS011;5941;57.652;12.514;2023-05-29T01:03:49;538.50;;;514.47;;
11767;SDS011;5941;57.652;12.514;2023-05-29T01:06:18;532.67;;;509.07;;
11767;SDS011;5941;57.652;12.514;2023-05-29T01:08:45;564.97;;;539.80;;
11767;SDS011;5941;57.652;12.514;2023-05-29T01:11:26;592.70;;;565.80;;
11767;SDS011;5941;57.652;12.514;2023-05-29T01:13:55;615.70;;;587.47;;
11767;SDS011;5941;57.652;12.514;2023-05-29T01:16:26;593.13;;;566.23;;
11767;SDS011;5941;57.652;12.514;2023-05-29T01:19:00;558.37;;;533.93;;
11767;SDS011;5941;57.652;12.514;2023-05-29T01:26:41;545.67;;;521.90;;
11767;SDS011;5941;57.652;12.514;2023-05-29T01:29:10;572.37;;;547.23;;
11767;SDS011;5941;57.652;12.514;2023-05-29T01:31:37;582.10;;;556.13;;
11767;SDS011;5941;57.652;12.514;2023-05-29T01:34:04;567.10;;;541.90;;
11767;SDS011;5941;57.652;12.514;2023-05-29T01:36:30;567.70;;;542.37;;
11767;SDS011;5941;57.652;12.514;2023-05-29T01:38:57;583.43;;;556.67;;
11767;SDS011;5941;57.652;12.514;2023-05-29T01:41:24;554.40;;;529.77;;
11767;SDS011;5941;57.652;12.514;2023-05-29T01:43:51;542.73;;;519.00;;
11767;SDS011;5941;57.652;12.514;2023-05-29T01:46:17;550.50;;;526.37;;
11767;SDS011;5941;57.652;12.514;2023-05-29T01:48:44;553.00;;;528.87;;
11767;SDS011;5941;57.652;12.514;2023-05-29T01:51:10;532.60;;;509.47;;
11767;SDS011;5941;57.652;12.514;2023-05-29T01:53:37;473.33;;;453.40;;
11767;SDS011;5941;57.652;12.514;2023-05-29T01:56:03;576.67;;;550.33;;
11767;SDS011;5941;57.652;12.514;2023-05-29T01:58:29;548.30;;;523.97;;
11767;SDS011;5941;57.652;12.514;2023-05-29T02:00:57;532.60;;;509.27;;
11767;SDS011;5941;57.652;12.514;2023-05-29T02:03:23;518.70;;;496.40;;
11767;SDS011;5941;57.652;12.514;2023-05-29T02:05:49;529.90;;;506.87;;
11767;SDS011;5941;57.652;12.514;2023-05-29T02:08:15;579.90;;;553.87;;
11767;SDS011;5941;57.652;12.514;2023-05-29T02:10:41;577.93;;;552.23;;
11767;SDS011;5941;57.652;12.514;2023-05-29T02:13:07;570.60;;;544.77;;
11767;SDS011;5941;57.652;12.514;2023-05-29T02:15:33;560.87;;;535.87;;
11767;SDS011;5941;57.652;12.514;2023-05-29T02:17:59;555.03;;;530.60;;
11767;SDS011;5941;57.652;12.514;2023-05-29T02:20:26;549.43;;;524.40;;
11767;SDS011;5941;57.652;12.514;2023-05-29T02:22:52;546.13;;;521.60;;
11767;SDS011;5941;57.652;12.514;2023-05-29T02:25:18;478.50;;;457.70;;
11767;SDS011;5941;57.652;12.514;2023-05-29T02:27:44;514.87;;;492.33;;
11767;SDS011;5941;57.652;12.514;2023-05-29T02:30:10;493.17;;;472.17;;
11767;SDS011;5941;57.652;12.514;2023-05-29T02:32:36;434.90;;;416.63;;
11767;SDS011;5941;57.652;12.514;2023-05-29T02:35:02;441.07;;;422.83;;
11767;SDS011;5941;57.652;12.514;2023-05-29T02:37:28;412.13;;;395.20;;
11767;SDS011;5941;57.652;12.514;2023-05-29T02:39:54;410.50;;;393.83;;
11767;SDS011;5941;57.652;12.514;2023-05-29T02:42:20;422.73;;;405.23;;
11767;SDS011;5941;57.652;12.514;2023-05-29T02:44:46;400.17;;;384.30;;
11767;SDS011;5941;57.652;12.514;2023-05-29T02:47:12;387.67;;;371.60;;
11767;SDS011;5941;57.652;12.514;2023-05-29T02:49:38;387.13;;;371.50;;
11767;SDS011;5941;57.652;12.514;2023-05-29T02:52:04;365.47;;;350.33;;
11767;SDS011;5941;57.652;12.514;2023-05-29T02:54:30;322.17;;;309.90;;
11767;SDS011;5941;57.652;12.514;2023-05-29T02:56:56;280.67;;;269.67;;
11767;SDS011;5941;57.652;12.514;2023-05-29T02:59:22;602.80;;;574.20;;
11767;SDS011;5941;57.652;12.514;2023-05-29T03:01:48;648.10;;;616.83;;
11767;SDS011;5941;57.652;12.514;2023-05-29T03:04:14;569.63;;;542.83;;
11767;SDS011;5941;57.652;12.514;2023-05-29T03:06:42;388.07;;;371.63;;
11767;SDS011;5941;57.652;12.514;2023-05-29T03:09:08;349.03;;;334.87;;
11767;SDS011;5941;57.652;12.514;2023-05-29T03:11:34;530.03;;;505.27;;
11767;SDS011;5941;57.652;12.514;2023-05-29T03:14:01;586.53;;;558.57;;
11767;SDS011;5941;57.652;12.514;2023-05-29T03:16:27;482.90;;;461.00;;
11767;SDS011;5941;57.652;12.514;2023-05-29T03:18:54;439.10;;;419.30;;
11767;SDS011;5941;57.652;12.514;2023-05-29T03:21:20;433.13;;;413.97;;
11767;SDS011;5941;57.652;12.514;2023-05-29T03:23:46;382.87;;;366.57;;
11767;SDS011;5941;57.652;12.514;2023-05-29T03:26:12;364.83;;;349.83;;
11767;SDS011;5941;57.652;12.514;2023-05-29T03:28:38;394.60;;;377.77;;
11767;SDS011;5941;57.652;12.514;2023-05-29T03:31:04;341.93;;;328.00;;
11767;SDS011;5941;57.652;12.514;2023-05-29T03:33:30;364.90;;;349.33;;
11767;SDS011;5941;57.652;12.514;2023-05-29T03:35:56;409.13;;;390.93;;
11767;SDS011;5941;57.652;12.514;2023-05-29T03:38:22;360.73;;;345.57;;
11767;SDS011;5941;57.652;12.514;2023-05-29T03:40:49;343.20;;;329.07;;
11767;SDS011;5941;57.652;12.514;2023-05-29T03:43:15;320.37;;;307.27;;
11767;SDS011;5941;57.652;12.514;2023-05-29T03:45:41;328.90;;;315.40;;
11767;SDS011;5941;57.652;12.514;2023-05-29T03:48:07;320.57;;;307.33;;
11767;SDS011;5941;57.652;12.514;2023-05-29T03:50:32;366.83;;;351.47;;
11767;SDS011;5941;57.652;12.514;2023-05-29T03:52:58;408.57;;;391.20;;
11767;SDS011;5941;57.652;12.514;2023-05-29T03:55:25;345.50;;;331.27;;
11767;SDS011;5941;57.652;12.514;2023-05-29T03:57:53;487.30;;;466.07;;
11767;SDS011;5941;57.652;12.514;2023-05-29T04:00:19;364.73;;;349.83;;
11767;SDS011;5941;57.652;12.514;2023-05-29T04:02:45;506.37;;;482.67;;
11767;SDS011;5941;57.652;12.514;2023-05-29T04:05:11;463.90;;;443.03;;
11767;SDS011;5941;57.652;12.514;2023-05-29T04:07:38;464.43;;;442.97;;
11767;SDS011;5941;57.652;12.514;2023-05-29T04:10:04;472.07;;;450.67;;
11767;SDS011;5941;57.652;12.514;2023-05-29T04:12:30;392.83;;;376.33;;
11767;SDS011;5941;57.652;12.514;2023-05-29T04:14:56;358.97;;;344.83;;
11767;SDS011;5941;57.652;12.514;2023-05-29T04:17:22;402.57;;;385.57;;
11767;SDS011;5941;57.652;12.514;2023-05-29T04:19:48;351.57;;;337.23;;
11767;SDS011;5941;57.652;12.514;2023-05-29T04:22:14;372.87;;;357.33;;
11767;SDS011;5941;57.652;12.514;2023-05-29T04:24:40;458.97;;;438.63;;
11767;SDS011;5941;57.652;12.514;2023-05-29T04:27:07;399.43;;;382.60;;
11767;SDS011;5941;57.652;12.514;2023-05-29T04:29:34;412.60;;;394.60;;
11767;SDS011;5941;57.652;12.514;2023-05-29T04:32:00;355.73;;;340.97;;
11767;SDS011;5941;57.652;12.514;2023-05-29T04:34:29;370.53;;;354.70;;
11767;SDS011;5941;57.652;12.514;2023-05-29T04:36:55;354.13;;;339.07;;
11767;SDS011;5941;57.652;12.514;2023-05-29T04:39:23;451.30;;;431.60;;
11767;SDS011;5941;57.652;12.514;2023-05-29T04:41:49;314.67;;;302.40;;
11767;SDS011;5941;57.652;12.514;2023-05-29T04:44:16;315.13;;;302.40;;
11767;SDS011;5941;57.652;12.514;2023-05-29T04:46:42;354.20;;;339.60;;
11767;SDS011;5941;57.652;12.514;2023-05-29T04:49:12;422.70;;;404.30;;
11767;SDS011;5941;57.652;12.514;2023-05-29T04:51:38;370.17;;;354.87;;
11767;SDS011;5941;57.652;12.514;2023-05-29T04:54:08;388.87;;;372.70;;
11767;SDS011;5941;57.652;12.514;2023-05-29T04:56:34;434.33;;;415.20;;
11767;SDS011;5941;57.652;12.514;2023-05-29T04:59:00;362.83;;;347.90;;
11767;SDS011;5941;57.652;12.514;2023-05-29T05:01:26;337.70;;;324.03;;
11767;SDS011;5941;57.652;12.514;2023-05-29T05:03:52;375.40;;;359.97;;
11767;SDS011;5941;57.652;12.514;2023-05-29T05:06:21;331.83;;;319.07;;
11767;SDS011;5941;57.652;12.514;2023-05-29T05:08:46;363.70;;;348.70;;
11767;SDS011;5941;57.652;12.514;2023-05-29T05:11:12;375.63;;;360.23;;
11767;SDS011;5941;57.652;12.514;2023-05-29T05:13:39;376.50;;;361.03;;
11767;SDS011;5941;57.652;12.514;2023-05-29T05:16:05;365.27;;;350.63;;
11767;SDS011;5941;57.652;12.514;2023-05-29T05:18:31;369.30;;;354.57;;
11767;SDS011;5941;57.652;12.514;2023-05-29T05:20:57;522.77;;;496.57;;
11767;SDS011;5941;57.652;12.514;2023-05-29T05:23:23;546.70;;;517.53;;
11767;SDS011;5941;57.652;12.514;2023-05-29T05:25:49;559.90;;;531.33;;
11767;SDS011;5941;57.652;12.514;2023-05-29T05:28:15;621.17;;;588.77;;
11767;SDS011;5941;57.652;12.514;2023-05-29T05:30:41;678.33;;;643.63;;
11767;SDS011;5941;57.652;12.514;2023-05-29T05:33:06;601.90;;;569.97;;
11767;SDS011;5941;57.652;12.514;2023-05-29T05:35:34;614.00;;;583.30;;
11767;SDS011;5941;57.652;12.514;2023-05-29T05:38:00;739.47;;;698.60;;
11767;SDS011;5941;57.652;12.514;2023-05-29T05:40:26;1166.80;;;804.27;;
11767;SDS011;5941;57.652;12.514;2023-05-29T05:42:52;792.73;;;744.93;;
11767;SDS011;5941;57.652;12.514;2023-05-29T05:45:18;1148.73;;;788.37;;
11767;SDS011;5941;57.652;12.514;2023-05-29T05:47:44;661.70;;;627.33;;
11767;SDS011;5941;57.652;12.514;2023-05-29T05:50:10;626.67;;;595.60;;
11767;SDS011;5941;57.652;12.514;2023-05-29T05:52:36;705.50;;;666.03;;
11767;SDS011;5941;57.652;12.514;2023-05-29T05:55:02;618.90;;;588.93;;
11767;SDS011;5941;57.652;12.514;2023-05-29T05:57:28;623.80;;;590.83;;
11767;SDS011;5941;57.652;12.514;2023-05-29T05:59:54;516.07;;;492.33;;
11767;SDS011;5941;57.652;12.514;2023-05-29T06:02:20;571.57;;;543.77;;
11767;SDS011;5941;57.652;12.514;2023-05-29T06:04:46;621.37;;;591.30;;
11767;SDS011;5941;57.652;12.514;2023-05-29T06:07:14;522.30;;;498.43;;
11767;SDS011;5941;57.652;12.514;2023-05-29T06:09:40;632.90;;;600.97;;
11767;SDS011;5941;57.652;12.514;2023-05-29T06:12:07;540.03;;;515.50;;
11767;SDS011;5941;57.652;12.514;2023-05-29T06:14:33;543.60;;;519.50;;
11767;SDS011;5941;57.652;12.514;2023-05-29T06:17:00;415.63;;;398.97;;
11767;SDS011;5941;57.652;12.514;2023-05-29T06:19:26;469.97;;;448.87;;
11767;SDS011;5941;57.652;12.514;2023-05-29T06:21:52;545.77;;;520.37;;
11767;SDS011;5941;57.652;12.514;2023-05-29T06:24:18;477.10;;;456.53;;
11767;SDS011;5941;57.652;12.514;2023-05-29T06:26:44;424.17;;;406.90;;
11767;SDS011;5941;57.652;12.514;2023-05-29T06:29:10;418.13;;;401.00;;
11767;SDS011;5941;57.652;12.514;2023-05-29T06:31:36;346.83;;;333.57;;
11767;SDS011;5941;57.652;12.514;2023-05-29T06:34:02;358.20;;;344.10;;
11767;SDS011;5941;57.652;12.514;2023-05-29T06:36:28;336.73;;;324.00;;
11767;SDS011;5941;57.652;12.514;2023-05-29T06:38:54;442.90;;;424.50;;
11767;SDS011;5941;57.652;12.514;2023-05-29T06:41:20;376.93;;;362.13;;
11767;SDS011;5941;57.652;12.514;2023-05-29T06:43:46;332.73;;;319.87;;
11767;SDS011;5941;57.652;12.514;2023-05-29T06:46:14;369.23;;;354.50;;
11767;SDS011;5941;57.652;12.514;2023-05-29T06:48:40;428.43;;;410.37;;
11767;SDS011;5941;57.652;12.514;2023-05-29T06:51:06;532.27;;;508.03;;
11767;SDS011;5941;57.652;12.514;2023-05-29T06:53:34;385.50;;;369.87;;
11767;SDS011;5941;57.652;12.514;2023-05-29T06:56:01;435.57;;;417.00;;
11767;SDS011;5941;57.652;12.514;2023-05-29T06:58:27;429.50;;;411.77;;
11767;SDS011;5941;57.652;12.514;2023-05-29T07:00:53;368.90;;;354.70;;
11767;SDS011;5941;57.652;12.514;2023-05-29T07:03:18;449.47;;;430.70;;
11767;SDS011;5941;57.652;12.514;2023-05-29T07:05:45;578.40;;;551.93;;
11767;SDS011;5941;57.652;12.514;2023-05-29T07:08:11;573.80;;;547.73;;
11767;SDS011;5941;57.652;12.514;2023-05-29T07:10:37;564.13;;;538.30;;
11767;SDS011;5941;57.652;12.514;2023-05-29T07:13:03;724.07;;;687.50;;
11767;SDS011;5941;57.652;12.514;2023-05-29T07:15:31;501.50;;;478.60;;
11767;SDS011;5941;57.652;12.514;2023-05-29T07:17:57;590.87;;;563.03;;
11767;SDS011;5941;57.652;12.514;2023-05-29T07:20:23;644.77;;;612.97;;
11767;SDS011;5941;57.652;12.514;2023-05-29T07:22:49;610.50;;;580.60;;
11767;SDS011;5941;57.652;12.514;2023-05-29T07:25:15;810.70;;;764.13;;
11767;SDS011;5941;57.652;12.514;2023-05-29T07:27:41;809.40;;;762.93;;
11767;SDS011;5941;57.652;12.514;2023-05-29T07:30:07;816.97;;;768.90;;
11767;SDS011;5941;57.652;12.514;2023-05-29T07:32:33;480.90;;;458.60;;
11767;SDS011;5941;57.652;12.514;2023-05-29T07:34:59;658.80;;;625.70;;
11767;SDS011;5941;57.652;12.514;2023-05-29T07:37:25;764.13;;;720.47;;
11767;SDS011;5941;57.652;12.514;2023-05-29T07:39:51;852.77;;;800.97;;
11767;SDS011;5941;57.652;12.514;2023-05-29T07:42:17;592.77;;;564.43;;
11767;SDS011;5941;57.652;12.514;2023-05-29T07:44:44;725.80;;;685.63;;
11767;SDS011;5941;57.652;12.514;2023-05-29T07:47:10;716.83;;;679.27;;
11767;SDS011;5941;57.652;12.514;2023-05-29T07:49:36;609.90;;;580.90;;
11767;SDS011;5941;57.652;12.514;2023-05-29T07:52:03;710.70;;;671.57;;
11767;SDS011;5941;57.652;12.514;2023-05-29T07:54:30;326.97;;;314.60;;
11767;SDS011;5941;57.652;12.514;2023-05-29T07:56:57;376.70;;;361.70;;
11767;SDS011;5941;57.652;12.514;2023-05-29T07:59:23;249.53;;;240.53;;
11767;SDS011;5941;57.652;12.514;2023-05-29T08:01:49;232.63;;;224.37;;
11767;SDS011;5941;57.652;12.514;2023-05-29T08:04:15;257.77;;;248.43;;
11767;SDS011;5941;57.652;12.514;2023-05-29T08:06:41;251.37;;;242.33;;
11767;SDS011;5941;57.652;12.514;2023-05-29T08:09:08;269.33;;;259.67;;
11767;SDS011;5941;57.652;12.514;2023-05-29T08:11:35;274.17;;;264.03;;
11767;SDS011;5941;57.652;12.514;2023-05-29T08:14:01;215.33;;;207.83;;
11767;SDS011;5941;57.652;12.514;2023-05-29T08:16:27;240.47;;;232.07;;
11767;SDS011;5941;57.652;12.514;2023-05-29T08:18:53;73.60;;;70.90;;
11767;SDS011;5941;57.652;12.514;2023-05-29T08:21:20;137.03;;;132.13;;
11767;SDS011;5941;57.652;12.514;2023-05-29T08:23:46;148.83;;;143.53;;
11767;SDS011;5941;57.652;12.514;2023-05-29T08:26:12;157.77;;;152.07;;
11767;SDS011;5941;57.652;12.514;2023-05-29T08:28:38;92.40;;;89.10;;
11767;SDS011;5941;57.652;12.514;2023-05-29T08:31:04;129.23;;;124.60;;
11767;SDS011;5941;57.652;12.514;2023-05-29T08:33:30;141.83;;;136.83;;
11767;SDS011;5941;57.652;12.514;2023-05-29T08:35:57;100.93;;;97.33;;
11767;SDS011;5941;57.652;12.514;2023-05-29T08:38:23;158.67;;;153.00;;
11767;SDS011;5941;57.652;12.514;2023-05-29T08:40:50;110.37;;;106.40;;
11767;SDS011;5941;57.652;12.514;2023-05-29T08:43:23;179.80;;;173.50;;
11767;SDS011;5941;57.652;12.514;2023-05-29T08:45:55;122.73;;;118.37;;
11767;SDS011;5941;57.652;12.514;2023-05-29T08:48:22;139.33;;;134.33;;
11767;SDS011;5941;57.652;12.514;2023-05-29T08:50:52;66.93;;;64.43;;
11767;SDS011;5941;57.652;12.514;2023-05-29T08:53:19;181.43;;;175.07;;
11767;SDS011;5941;57.652;12.514;2023-05-29T08:55:46;67.83;;;65.33;;
11767;SDS011;5941;57.652;12.514;2023-05-29T08:58:13;105.40;;;101.70;;
11767;SDS011;5941;57.652;12.514;2023-05-29T09:00:40;96.60;;;93.20;;
11767;SDS011;5941;57.652;12.514;2023-05-29T09:03:07;36.00;;;34.70;;
11767;SDS011;5941;57.652;12.514;2023-05-29T09:05:33;60.10;;;57.90;;
11767;SDS011;5941;57.652;12.514;2023-05-29T09:07:59;72.93;;;70.27;;
11767;SDS011;5941;57.652;12.514;2023-05-29T09:10:27;71.20;;;68.50;;
11767;SDS011;5941;57.652;12.514;2023-05-29T09:12:53;93.70;;;90.30;;
11767;SDS011;5941;57.652;12.514;2023-05-29T09:15:20;20.73;;;20.03;;
11767;SDS011;5941;57.652;12.514;2023-05-29T09:17:50;38.73;;;37.33;;
11767;SDS011;5941;57.652;12.514;2023-05-29T09:20:17;23.73;;;22.87;;
11767;SDS011;5941;57.652;12.514;2023-05-29T09:22:52;11.37;;;10.97;;
11767;SDS011;5941;57.652;12.514;2023-05-29T09:25:20;22.83;;;22.03;;
11767;SDS011;5941;57.652;12.514;2023-05-29T09:27:47;49.07;;;47.20;;
11767;SDS011;5941;57.652;12.514;2023-05-29T09:30:18;19.10;;;18.40;;
11767;SDS011;5941;57.652;12.514;2023-05-29T09:32:55;34.43;;;33.20;;
11767;SDS011;5941;57.652;12.514;2023-05-29T09:35:21;16.30;;;15.70;;
11767;SDS011;5941;57.652;12.514;2023-05-29T09:37:47;31.57;;;30.30;;
11767;SDS011;5941;57.652;12.514;2023-05-29T09:40:15;40.27;;;38.77;;
11767;SDS011;5941;57.652;12.514;2023-05-29T09:42:41;40.93;;;39.37;;
11767;SDS011;5941;57.652;12.514;2023-05-29T09:45:07;34.90;;;33.60;;
11767;SDS011;5941;57.652;12.514;2023-05-29T09:47:33;18.50;;;17.80;;
11767;SDS011;5941;57.652;12.514;2023-05-29T09:50:00;65.07;;;62.70;;
11767;SDS011;5941;57.652;12.514;2023-05-29T09:52:26;41.93;;;40.33;;
11767;SDS011;5941;57.652;12.514;2023-05-29T09:54:57;69.03;;;66.53;;
11767;SDS011;5941;57.652;12.514;2023-05-29T09:57:23;48.80;;;47.03;;
11767;SDS011;5941;57.652;12.514;2023-05-29T09:59:50;58.97;;;56.77;;
11767;SDS011;5941;57.652;12.514;2023-05-29T10:02:17;26.03;;;25.03;;
11767;SDS011;5941;57.652;12.514;2023-05-29T10:04:44;40.10;;;38.67;;
11767;SDS011;5941;57.652;12.514;2023-05-29T10:07:12;70.47;;;67.87;;
11767;SDS011;5941;57.652;12.514;2023-05-29T10:09:41;48.43;;;46.63;;
11767;SDS011;5941;57.652;12.514;2023-05-29T10:12:08;11.50;;;11.00;;
11767;SDS011;5941;57.652;12.514;2023-05-29T10:14:36;17.50;;;16.90;;
11767;SDS011;5941;57.652;12.514;2023-05-29T10:17:04;26.17;;;25.17;;
11767;SDS011;5941;57.652;12.514;2023-05-29T10:19:33;14.97;;;14.47;;
11767;SDS011;5941;57.652;12.514;2023-05-29T10:22:01;33.37;;;32.17;;
11767;SDS011;5941;57.652;12.514;2023-05-29T10:24:28;11.70;;;11.10;;
11767;SDS011;5941;57.652;12.514;2023-05-29T10:26:55;11.47;;;11.07;;
11767;SDS011;5941;57.652;12.514;2023-05-29T10:39:45;12.00;;;11.40;;
11767;SDS011;5941;57.652;12.514;2023-05-29T10:44:56;14.60;;;14.00;;
11767;SDS011;5941;57.652;12.514;2023-05-29T10:47:22;12.90;;;12.43;;
11767;SDS011;5941;57.652;12.514;2023-05-29T10:49:49;19.10;;;18.37;;
11767;SDS011;5941;57.652;12.514;2023-05-29T10:52:16;12.00;;;11.50;;
11767;SDS011;5941;57.652;12.514;2023-05-29T10:54:51;10.67;;;10.27;;
11767;SDS011;5941;57.652;12.514;2023-05-29T10:57:18;19.00;;;18.30;;
11767;SDS011;5941;57.652;12.514;2023-05-29T10:59:44;10.33;;;9.90;;
11767;SDS011;5941;57.652;12.514;2023-05-29T11:02:10;11.50;;;11.10;;
11767;SDS011;5941;57.652;12.514;2023-05-29T11:04:37;10.32;;;9.93;;
11767;SDS011;5941;57.652;12.514;2023-05-29T11:07:03;11.47;;;11.07;;
11767;SDS011;5941;57.652;12.514;2023-05-29T11:12:12;31.90;;;30.53;;
11767;SDS011;5941;57.652;12.514;2023-05-29T11:14:48;58.23;;;56.07;;
11767;SDS011;5941;57.652;12.514;2023-05-29T11:20:04;16.40;;;15.77;;
11767;SDS011;5941;57.652;12.514;2023-05-29T11:22:34;12.90;;;12.38;;
11767;SDS011;5941;57.652;12.514;2023-05-29T11:25:03;60.80;;;58.58;;
11767;SDS011;5941;57.652;12.514;2023-05-29T11:27:30;170.00;;;163.97;;
11767;SDS011;5941;57.652;12.514;2023-05-29T11:29:56;21.77;;;20.97;;
11767;SDS011;5941;57.652;12.514;2023-05-29T11:32:22;10.65;;;10.25;;
11767;SDS011;5941;57.652;12.514;2023-05-29T11:34:51;33.27;;;31.97;;
11767;SDS011;5941;57.652;12.514;2023-05-29T11:37:17;32.57;;;31.27;;
11767;SDS011;5941;57.652;12.514;2023-05-29T11:39:43;56.47;;;54.35;;
11767;SDS011;5941;57.652;12.514;2023-05-29T11:42:11;10.10;;;9.70;;
11767;SDS011;5941;57.652;12.514;2023-05-29T11:44:37;24.53;;;23.57;;
11767;SDS011;5941;57.652;12.514;2023-05-29T11:47:04;10.63;;;10.03;;
11767;SDS011;5941;57.652;12.514;2023-05-29T11:49:31;18.87;;;18.07;;
11767;SDS011;5941;57.652;12.514;2023-05-29T11:52:05;11.32;;;10.82;;
11767;SDS011;5941;57.652;12.514;2023-05-29T11:54:32;14.75;;;14.02;;
11767;SDS011;5941;57.652;12.514;2023-05-29T11:56:59;20.77;;;20.02;;
11767;SDS011;5941;57.652;12.514;2023-05-29T11:59:28;13.70;;;13.10;;
11767;SDS011;5941;57.652;12.514;2023-05-29T12:01:54;17.80;;;17.10;;
11767;SDS011;5941;57.652;12.514;2023-05-29T12:04:20;13.63;;;13.03;;
11767;SDS011;5941;57.652;12.514;2023-05-29T12:06:46;10.70;;;10.30;;
11767;SDS011;5941;57.652;12.514;2023-05-29T12:09:27;10.30;;;10.00;;
11767;SDS011;5941;57.652;12.514;2023-05-29T12:12:00;11.93;;;11.33;;
11767;SDS011;5941;57.652;12.514;2023-05-29T12:14:26;13.37;;;12.77;;
11767;SDS011;5941;57.652;12.514;2023-05-29T12:16:52;14.60;;;14.00;;
11767;SDS011;5941;57.652;12.514;2023-05-29T12:19:18;31.50;;;30.20;;
11767;SDS011;5941;57.652;12.514;2023-05-29T12:21:44;36.53;;;35.10;;
11767;SDS011;5941;57.652;12.514;2023-05-29T12:24:10;16.95;;;16.35;;
11767;SDS011;5941;57.652;12.514;2023-05-29T12:26:36;20.23;;;19.53;;
11767;SDS011;5941;57.652;12.514;2023-05-29T12:29:03;57.60;;;55.40;;
11767;SDS011;5941;57.652;12.514;2023-05-29T12:31:32;35.57;;;34.17;;
11767;SDS011;5941;57.652;12.514;2023-05-29T12:34:02;31.67;;;30.40;;
11767;SDS011;5941;57.652;12.514;2023-05-29T12:36:28;48.03;;;46.13;;
11767;SDS011;5941;57.652;12.514;2023-05-29T12:38:55;55.43;;;53.33;;
11767;SDS011;5941;57.652;12.514;2023-05-29T12:41:23;12.60;;;12.10;;
11767;SDS011;5941;57.652;12.514;2023-05-29T12:43:52;13.30;;;12.80;;
11767;SDS011;5941;57.652;12.514;2023-05-29T12:46:19;21.25;;;20.33;;
11767;SDS011;5941;57.652;12.514;2023-05-29T12:48:45;33.37;;;32.10;;
11767;SDS011;5941;57.652;12.514;2023-05-29T12:51:11;15.33;;;14.77;;
11767;SDS011;5941;57.652;12.514;2023-05-29T12:53:37;14.83;;;14.23;;
11767;SDS011;5941;57.652;12.514;2023-05-29T12:56:03;15.50;;;14.90;;
11767;SDS011;5941;57.652;12.514;2023-05-29T12:58:29;17.27;;;16.67;;
11767;SDS011;5941;57.652;12.514;2023-05-29T13:00:55;12.07;;;11.57;;
11767;SDS011;5941;57.652;12.514;2023-05-29T13:03:21;10.30;;;9.80;;
11767;SDS011;5941;57.652;12.514;2023-05-29T13:05:51;10.20;;;9.80;;
11767;SDS011;5941;57.652;12.514;2023-05-29T13:08:18;10.15;;;9.75;;
11767;SDS011;5941;57.652;12.514;2023-05-29T13:10:44;10.25;;;9.73;;
11767;SDS011;5941;57.652;12.514;2023-05-29T13:13:10;9.90;;;9.50;;
11767;SDS011;5941;57.652;12.514;2023-05-29T13:15:37;11.48;;;10.77;;
11767;SDS011;5941;57.652;12.514;2023-05-29T13:18:05;10.20;;;9.70;;
11767;SDS011;5941;57.652;12.514;2023-05-29T13:20:31;10.73;;;10.23;;
11767;SDS011;5941;57.652;12.514;2023-05-29T13:22:57;10.47;;;9.97;;
11767;SDS011;5941;57.652;12.514;2023-05-29T13:25:23;13.30;;;12.77;;
11767;SDS011;5941;57.652;12.514;2023-05-29T13:27:50;10.03;;;9.63;;
11767;SDS011;5941;57.652;12.514;2023-05-29T13:30:17;11.87;;;11.47;;
11767;SDS011;5941;57.652;12.514;2023-05-29T13:32:43;10.70;;;10.20;;
11767;SDS011;5941;57.652;12.514;2023-05-29T13:35:09;13.53;;;12.93;;
11767;SDS011;5941;57.652;12.514;2023-05-29T13:37:35;12.37;;;11.60;;
11767;SDS011;5941;57.652;12.514;2023-05-29T13:40:01;12.60;;;12.00;;
11767;SDS011;5941;57.652;12.514;2023-05-29T13:42:28;10.83;;;10.40;;
11767;SDS011;5941;57.652;12.514;2023-05-29T13:44:55;10.17;;;9.70;;
11767;SDS011;5941;57.652;12.514;2023-05-29T13:47:21;10.37;;;9.97;;
11767;SDS011;5941;57.652;12.514;2023-05-29T13:49:47;11.23;;;10.60;;
11767;SDS011;5941;57.652;12.514;2023-05-29T13:52:13;10.63;;;10.23;;
11767;SDS011;5941;57.652;12.514;2023-05-29T13:54:39;12.63;;;12.23;;
11767;SDS011;5941;57.652;12.514;2023-05-29T13:57:05;11.20;;;10.80;;
11767;SDS011;5941;57.652;12.514;2023-05-29T13:59:32;10.83;;;10.43;;
11767;SDS011;5941;57.652;12.514;2023-05-29T14:01:58;11.40;;;10.90;;
11767;SDS011;5941;57.652;12.514;2023-05-29T14:04:24;11.70;;;11.10;;
11767;SDS011;5941;57.652;12.514;2023-05-29T14:06:51;11.73;;;11.10;;
11767;SDS011;5941;57.652;12.514;2023-05-29T14:09:17;11.20;;;10.70;;
11767;SDS011;5941;57.652;12.514;2023-05-29T14:11:47;11.40;;;10.90;;
11767;SDS011;5941;57.652;12.514;2023-05-29T14:14:13;11.57;;;10.97;;
11767;SDS011;5941;57.652;12.514;2023-05-29T14:16:40;13.70;;;13.20;;
11767;SDS011;5941;57.652;12.514;2023-05-29T14:19:06;12.17;;;11.67;;
11767;SDS011;5941;57.652;12.514;2023-05-29T14:21:32;12.67;;;12.17;;
11767;SDS011;5941;57.652;12.514;2023-05-29T14:23:58;12.23;;;11.43;;
11767;SDS011;5941;57.652;12.514;2023-05-29T14:26:24;13.03;;;12.53;;